Hub


Voltar

 INFORMAÇÕES METEOROLÓGICAS

METAR FOR GCRR


ADDS - METARS form results

(2341 UTC 19 August 2019)
Data provider http://aviationweather.gov/metar/data/
 
METAR text: GCRR 192330Z 03012G22KT 350V060 9999 FEW015 22/19 Q1018
Conditions at: GCRR (ARRECIFE/LANZARO, ES) observed 2330 UTC 19 August 2019
Temperature: 22.0°C (72°F)
Dewpoint: 19.0°C (66°F) [RH = 83%]
Pressure (altimeter): 30.06 inches Hg (1018.0 mb)
Winds: from the NNE (30 degrees) at 14 MPH (12 knots; 6.2 m/s)
gusting to 25 MPH (22 knots; 11.3 m/s)
Visibility: 6 or more miles (10+ km)
Ceiling: at least 12,000 feet AGL
Clouds: few clouds at 1500 feet AGL
Weather: no significant weather observed at this time

METAR text: GCRR 192300Z 03014KT 350V060 9999 FEW015 22/19 Q1017
Conditions at: GCRR (ARRECIFE/LANZARO, ES) observed 2300 UTC 19 August 2019
Temperature: 22.0°C (72°F)
Dewpoint: 19.0°C (66°F) [RH = 83%]
Pressure (altimeter): 30.03 inches Hg (1017.0 mb)
Winds: from the NNE (30 degrees) at 16 MPH (14 knots; 7.2 m/s)
Visibility: 6 or more miles (10+ km)
Ceiling: at least 12,000 feet AGL
Clouds: few clouds at 1500 feet AGL
Weather: no significant weather observed at this time

Forecast for: GCRR (ARRECIFE/LANZARO, ES)
Text: TAF GCRR 192000Z 1921/2021 01018KT 9999 FEW018 TX30/2014Z TN22/2000Z
Forecast period: 2100 UTC 19 August 2019 to 2100 UTC 20 August 2019
Forecast type: FROM: standard forecast or significant change
Winds: from the N (10 degrees) at 21 MPH (18 knots; 9.3 m/s)
Visibility: 6 or more miles 10+ km)
Ceiling: at least 12,000 feet AGL
Clouds: few clouds at 1800 feet AGL
Weather: no significant weather forecast for this period


 MAPA DO AEROPORTO


 INFORMAÇÕES DA PISTA

Pista 03 Tamanho da pista 7874 ft Largura da pista 148 ft
Elevação da pista 18 ft Ranhura da pista 0 ft Proa da pista 27
Pista 21 Tamanho da pista 7874 ft Largura da pista 148 ft
Elevação da pista 47 ft Ranhura da pista 0 ft Proa da pista 207

 FREQUÊNCIAS DO AEROPORTO

Tipo APP Nome CANARIAS A Frequência 129.3 MHZ
Tipo ATIS Nome ATIS Frequência 118.625 MHZ
Tipo GND Nome GND Frequência 121.8 MHZ
Tipo TWR Nome TWR Frequência 120.7 MHZ

 AUXÍLIOS DE NAVEGAÇÃO PRÓXIMOS AO AEROPORTO

Tipo VOR-DME Nome Lanzarote Frequência 113700 KHZ
Tipo NDB Nome Lanzarote Frequência 310 KHZ
Tipo VOR-DME Nome Lanzarote Frequência 115200 KHZ
Tipo TACAN Nome Lanzarote Frequência 114700 KHZ